Time;durP1;ratioP1;P1;durP2;ratioP2;P2;SDS_P1;SDS_P2;PMS_P1;PMS_P2;Temp;Humidity;BMP_temperature;BMP_pressure;BME280_temperature;BME280_humidity;BME280_pressure;Samples;Min_cycle;Max_cycle;Signal;HPM_P1;HPM_P2
2022/05/19 00:02:12;;;;;;;22.15;13.68;;;21.90;99.90;;;;;;5075277;28;20365;-75
2022/05/19 00:04:37;;;;;;;25.95;14.05;;;21.80;99.90;;;;;;5091929;28;20035;-75
2022/05/19 00:07:04;;;;;;;22.75;14.27;;;22.00;99.90;;;;;;5095225;28;20036;-75
2022/05/19 00:09:30;;;;;;;25.63;14.75;;;21.90;99.90;;;;;;5094099;28;20028;-75
2022/05/19 00:11:58;;;;;;;21.83;13.18;;;21.90;99.90;;;;;;5082617;28;20035;-75
2022/05/19 00:14:24;;;;;;;25.83;14.48;;;21.90;99.90;;;;;;5074596;28;20036;-76
2022/05/19 00:16:50;;;;;;;20.35;13.85;;;22.10;99.90;;;;;;5074858;28;20469;-76
2022/05/19 00:19:18;;;;;;;20.30;13.27;;;22.00;99.90;;;;;;5074703;28;20031;-75
2022/05/19 00:21:44;;;;;;;18.08;12.65;;;22.00;99.90;;;;;;5073620;28;20166;-75
2022/05/19 00:24:10;;;;;;;43.58;16.55;;;22.00;99.90;;;;;;5074777;28;20028;-75
2022/05/19 00:26:36;;;;;;;21.25;14.18;;;21.90;99.90;;;;;;5074945;28;20031;-75
2022/05/19 00:29:02;;;;;;;22.02;14.50;;;21.90;99.90;;;;;;5074063;28;20146;-75
2022/05/19 00:31:29;;;;;;;22.00;14.45;;;21.90;99.90;;;;;;5074806;28;20111;-75
2022/05/19 00:33:56;;;;;;;22.10;13.35;;;22.00;99.90;;;;;;5074523;28;20036;-75
2022/05/19 00:36:21;;;;;;;23.33;14.27;;;22.00;99.90;;;;;;5073475;28;20044;-75
2022/05/19 00:38:48;;;;;;;20.88;13.10;;;22.00;99.90;;;;;;5074375;28;20071;-75
2022/05/19 00:41:15;;;;;;;23.85;14.77;;;22.10;99.90;;;;;;5074481;28;20056;-75
2022/05/19 00:43:56;;;;;;;17.77;14.13;;;22.00;99.90;;;;;;5074203;28;20054;-75
2022/05/19 00:46:33;;;;;;;16.77;12.43;;;22.00;99.90;;;;;;5074740;28;20032;-75
2022/05/19 00:49:09;;;;;;;21.17;12.98;;;22.00;99.90;;;;;;5094321;28;20031;-76
2022/05/19 00:51:39;;;;;;;17.70;12.32;;;22.00;99.90;;;;;;5094684;28;20074;-75
2022/05/19 00:54:09;;;;;;;24.95;14.15;;;22.10;99.90;;;;;;5092921;28;20405;-76
2022/05/19 00:56:48;;;;;;;23.75;14.45;;;21.90;99.90;;;;;;5094413;28;20180;-75
2022/05/19 00:59:24;;;;;;;28.58;14.60;;;21.80;99.90;;;;;;5093843;28;20102;-75
2022/05/19 01:01:49;;;;;;;25.08;13.65;;;21.70;99.90;;;;;;5092495;28;20024;-76
2022/05/19 01:04:25;;;;;;;22.98;13.77;;;21.60;99.90;;;;;;5094119;28;20012;-75
2022/05/19 01:06:56;;;;;;;19.75;13.68;;;21.80;99.90;;;;;;5094024;28;20396;-75
2022/05/19 01:09:21;;;;;;;18.15;13.02;;;21.80;99.90;;;;;;5094540;28;20114;-76
2022/05/19 01:11:52;;;;;;;26.05;13.10;;;21.70;99.90;;;;;;5093770;28;20449;-75
2022/05/19 01:14:18;;;;;;;20.23;13.82;;;21.70;99.90;;;;;;5093734;28;20039;-75
2022/05/19 01:16:44;;;;;;;21.65;13.48;;;21.60;99.90;;;;;;5075335;28;20392;-75
2022/05/19 01:19:29;;;;;;;24.83;14.20;;;21.80;99.90;;;;;;5093762;28;20070;-75
2022/05/19 01:22:01;;;;;;;24.48;14.55;;;21.80;99.90;;;;;;5085556;28;20089;-76
2022/05/19 01:24:35;;;;;;;;;;;21.80;99.90;;;;;;5094218;28;20032;-86
2022/05/19 01:27:02;;;;;;;42.83;19.70;;;21.10;99.90;;;;;;5093652;28;20364;-81
2022/05/19 01:29:28;;;;;;;74.15;25.88;;;20.60;99.90;;;;;;5093880;28;20422;-86
2022/05/19 01:31:57;;;;;;;44.97;22.50;;;20.70;99.90;;;;;;5094021;28;20042;-78
2022/05/19 01:34:30;;;;;;;39.53;22.45;;;20.70;99.90;;;;;;5093496;28;20032;-78
2022/05/19 01:36:57;;;;;;;36.65;22.02;;;20.60;99.90;;;;;;5092589;28;20035;-77
2022/05/19 01:39:30;;;;;;;34.80;20.55;;;20.20;99.90;;;;;;5092249;28;20472;-77
2022/05/19 01:42:35;;;;;;;34.70;21.17;;;20.10;99.90;;;;;;5093480;28;20105;-77
2022/05/19 01:45:15;;;;;;;34.72;22.55;;;19.90;99.90;;;;;;5093452;28;20036;-77
2022/05/19 01:47:45;;;;;;;35.63;22.17;;;20.00;99.90;;;;;;5081609;28;20025;-81
2022/05/19 01:50:13;;;;;;;33.80;22.80;;;20.20;99.90;;;;;;5071852;28;20044;-78
2022/05/19 01:52:47;;;;;;;47.28;25.67;;;20.10;99.90;;;;;;5073258;28;20052;-78
2022/05/19 01:55:55;;;;;;;34.30;23.58;;;19.90;99.90;;;;;;5072864;28;20032;-78
2022/05/19 01:58:28;;;;;;;39.20;24.40;;;19.80;99.90;;;;;;5070076;28;20052;-78
2022/05/19 02:00:57;;;;;;;36.65;23.52;;;19.80;99.90;;;;;;5071502;28;20469;-77
2022/05/19 02:03:52;;;;;;;39.17;24.73;;;19.90;99.90;;;;;;5075832;28;20074;-77
2022/05/19 02:06:27;;;;;;;34.65;24.08;;;20.10;99.90;;;;;;5072871;28;20469;-78
2022/05/19 02:09:06;;;;;;;33.03;23.17;;;20.20;99.90;;;;;;5072836;28;20086;-77
2022/05/19 02:11:38;;;;;;;30.13;20.35;;;20.50;99.90;;;;;;5072633;28;20071;-77
2022/05/19 02:14:09;;;;;;;32.38;19.00;;;20.60;99.90;;;;;;5072877;28;20465;-77
2022/05/19 02:16:36;;;;;;;29.83;19.50;;;20.70;99.90;;;;;;5073004;28;20052;-77
2022/05/19 02:19:02;;;;;;;33.60;19.00;;;20.60;99.90;;;;;;5072801;28;20419;-76
2022/05/19 02:21:28;;;;;;;33.65;20.10;;;20.40;99.90;;;;;;5072900;28;20536;-76
2022/05/19 02:24:01;;;;;;;31.35;20.77;;;20.20;99.90;;;;;;5072820;28;20024;-76
2022/05/19 02:26:33;;;;;;;29.65;20.70;;;20.50;99.90;;;;;;5072315;28;20037;-77
2022/05/19 02:29:06;;;;;;;33.67;21.73;;;20.50;99.90;;;;;;5072772;28;20522;-77
2022/05/19 02:31:31;;;;;;;30.63;19.25;;;20.30;99.90;;;;;;5088396;28;20036;-76
2022/05/19 02:33:57;;;;;;;31.00;19.02;;;20.30;99.90;;;;;;5072651;28;20025;-77
2022/05/19 02:36:23;;;;;;;31.27;18.65;;;20.40;99.90;;;;;;5072653;28;20484;-77
2022/05/19 02:38:49;;;;;;;31.35;18.77;;;20.50;99.90;;;;;;5088176;28;20065;-77
2022/05/19 02:41:14;;;;;;;28.75;17.05;;;20.50;99.90;;;;;;5072988;28;20693;-78
2022/05/19 02:43:40;;;;;;;23.48;13.48;;;20.50;99.90;;;;;;5088237;28;20369;-77
2022/05/19 02:46:06;;;;;;;26.45;13.50;;;20.30;99.90;;;;;;5072576;28;20024;-78
2022/05/19 02:48:33;;;;;;;23.45;12.10;;;20.20;99.90;;;;;;5091089;28;20028;-79
2022/05/19 02:51:00;;;;;;;23.15;10.68;;;20.10;99.90;;;;;;5091351;28;20496;-78
2022/05/19 02:53:26;;;;;;;14.77;8.77;;;20.00;99.90;;;;;;5092545;28;20046;-77
2022/05/19 02:55:54;;;;;;;13.40;8.18;;;20.00;99.90;;;;;;5092858;28;20532;-78
2022/05/19 02:58:19;;;;;;;16.08;9.45;;;20.00;99.90;;;;;;5092625;28;20063;-78
2022/05/19 03:00:48;;;;;;;12.48;9.18;;;19.90;99.90;;;;;;5091436;28;20032;-77
2022/05/19 03:03:14;;;;;;;15.27;8.73;;;19.80;99.90;;;;;;5092280;28;20020;-77
2022/05/19 03:05:40;;;;;;;22.95;8.30;;;19.70;99.90;;;;;;5091339;28;20028;-77
2022/05/19 03:08:07;;;;;;;15.00;8.13;;;19.80;99.90;;;;;;5092286;28;20034;-78
2022/05/19 03:10:35;;;;;;;15.52;7.40;;;19.80;99.90;;;;;;5092596;28;20107;-77
2022/05/19 03:13:02;;;;;;;12.32;7.47;;;19.90;99.90;;;;;;5092408;28;20040;-77
2022/05/19 03:15:29;;;;;;;11.00;6.32;;;19.80;99.90;;;;;;5092650;28;20032;-76
2022/05/19 03:17:55;;;;;;;10.30;6.22;;;19.90;99.90;;;;;;5091174;28;20465;-76
2022/05/19 03:20:21;;;;;;;10.23;6.10;;;19.80;99.90;;;;;;5092491;28;20031;-77
2022/05/19 03:22:47;;;;;;;9.60;5.40;;;19.80;99.90;;;;;;5092297;28;20024;-76
2022/05/19 03:25:14;;;;;;;8.50;6.43;;;19.70;99.90;;;;;;5092925;28;20020;-76
2022/05/19 03:27:40;;;;;;;17.92;7.20;;;19.70;99.90;;;;;;5091422;28;20040;-76
2022/05/19 03:30:11;;;;;;;15.52;7.10;;;19.50;99.90;;;;;;5092454;28;20024;-76
2022/05/19 03:32:38;;;;;;;13.27;6.78;;;19.50;99.90;;;;;;5092978;28;20578;-76
2022/05/19 03:35:04;;;;;;;12.15;6.05;;;19.70;99.90;;;;;;5092419;28;20028;-76
2022/05/19 03:37:30;;;;;;;13.55;7.28;;;19.90;99.90;;;;;;5092232;28;20080;-76
2022/05/19 03:39:56;;;;;;;16.33;5.85;;;20.10;99.90;;;;;;5095197;28;20103;-77
2022/05/19 03:42:21;;;;;;;14.43;5.43;;;20.10;99.90;;;;;;5094714;28;20043;-77
2022/05/19 03:44:47;;;;;;;19.17;7.07;;;19.90;99.90;;;;;;5095886;28;20024;-78
2022/05/19 03:47:13;;;;;;;15.85;6.60;;;19.60;99.90;;;;;;5086425;28;20012;-78
2022/05/19 03:49:38;;;;;;;14.05;5.00;;;19.50;99.90;;;;;;5075596;28;20473;-78
2022/05/19 03:52:05;;;;;;;10.27;4.53;;;19.10;99.90;;;;;;5075231;28;20043;-76
2022/05/19 03:54:31;;;;;;;7.03;3.40;;;19.00;99.90;;;;;;5075254;28;20078;-76
2022/05/19 03:56:57;;;;;;;10.70;3.72;;;19.00;99.90;;;;;;5075424;28;20017;-77
2022/05/19 03:59:23;;;;;;;6.45;2.88;;;19.10;99.90;;;;;;5075127;28;20043;-78
2022/05/19 04:01:49;;;;;;;10.38;3.13;;;19.20;99.90;;;;;;5075388;28;20499;-77
2022/05/19 04:04:15;;;;;;;7.72;3.20;;;19.30;99.90;;;;;;5089620;28;20024;-77
2022/05/19 04:06:41;;;;;;;8.77;3.13;;;19.40;99.90;;;;;;5093842;28;20039;-77
2022/05/19 04:09:07;;;;;;;5.25;2.70;;;19.40;99.90;;;;;;5095369;28;20120;-76
2022/05/19 04:11:33;;;;;;;7.57;3.90;;;19.40;99.90;;;;;;5094275;28;20126;-77
2022/05/19 04:13:59;;;;;;;10.40;3.97;;;19.40;99.90;;;;;;5095191;28;20036;-76
2022/05/19 04:16:25;;;;;;;12.43;4.70;;;19.50;99.90;;;;;;5095419;28;20024;-76
2022/05/19 04:18:51;;;;;;;9.15;4.15;;;19.60;99.90;;;;;;5093984;28;20044;-76
2022/05/19 04:21:17;;;;;;;8.90;4.90;;;19.60;99.90;;;;;;5094890;28;20026;-76
2022/05/19 04:23:43;;;;;;;13.93;5.20;;;19.80;99.90;;;;;;5095237;28;20412;-76
2022/05/19 04:26:08;;;;;;;7.35;4.25;;;19.60;99.90;;;;;;5093934;28;20032;-76
2022/05/19 04:28:34;;;;;;;10.98;4.55;;;19.60;99.90;;;;;;5095072;28;20020;-76
2022/05/19 04:31:00;;;;;;;9.15;4.05;;;19.50;99.90;;;;;;5093764;28;20484;-76
2022/05/19 04:33:27;;;;;;;7.43;4.20;;;19.60;99.90;;;;;;5094819;28;20031;-76
2022/05/19 04:35:53;;;;;;;8.15;4.18;;;19.80;99.90;;;;;;5094597;28;20035;-77
2022/05/19 04:38:18;;;;;;;9.05;3.95;;;19.90;99.90;;;;;;5095039;28;20032;-77
2022/05/19 04:40:49;;;;;;;13.43;4.72;;;19.80;99.90;;;;;;5094901;28;20388;-75
2022/05/19 04:43:22;;;;;;;;;;;19.40;99.90;;;;;;5093991;28;20023;-75
2022/05/19 04:45:50;;;;;;;15.50;6.68;;;18.90;99.90;;;;;;5094839;28;19915;-75
2022/05/19 04:48:16;;;;;;;7.90;4.82;;;18.70;99.90;;;;;;5077941;28;20024;-75
2022/05/19 04:50:42;;;;;;;15.48;5.20;;;18.60;99.90;;;;;;5072330;28;20020;-75
2022/05/19 04:53:08;;;;;;;9.35;4.93;;;18.80;99.90;;;;;;5074379;28;20477;-73
2022/05/19 04:55:38;;;;;;;12.55;5.55;;;18.90;99.90;;;;;;5074461;28;20029;-75
2022/05/19 04:58:06;;;;;;;9.88;5.57;;;18.80;99.90;;;;;;5074363;28;20036;-74
2022/05/19 05:00:32;;;;;;;16.35;5.90;;;18.80;99.90;;;;;;5073721;28;20081;-75
2022/05/19 05:02:58;;;;;;;14.30;6.20;;;18.90;99.90;;;;;;5077854;28;20378;-75
2022/05/19 05:05:23;;;;;;;9.93;6.60;;;19.10;99.90;;;;;;5092598;28;20040;-75
2022/05/19 05:07:50;;;;;;;9.52;5.90;;;19.20;99.90;;;;;;5094269;28;20573;-74
2022/05/19 05:10:16;;;;;;;8.40;5.53;;;19.30;99.90;;;;;;5093937;28;20111;-75
2022/05/19 05:12:41;;;;;;;10.45;5.53;;;19.50;99.90;;;;;;5094143;28;20024;-74
2022/05/19 05:15:08;;;;;;;8.55;5.47;;;19.70;99.90;;;;;;5093910;28;20024;-75
2022/05/19 05:17:34;;;;;;;10.00;5.72;;;19.70;99.90;;;;;;5094143;28;20020;-75
2022/05/19 05:20:00;;;;;;;10.60;5.43;;;19.80;99.90;;;;;;5093634;28;20345;-75
2022/05/19 05:22:26;;;;;;;14.95;6.40;;;19.50;99.90;;;;;;5093875;28;20081;-75
2022/05/19 05:24:52;;;;;;;10.63;6.07;;;19.80;99.90;;;;;;5093843;28;20039;-75
2022/05/19 05:27:18;;;;;;;8.52;6.35;;;19.90;99.90;;;;;;5093770;28;20040;-75
2022/05/19 05:29:44;;;;;;;10.27;6.65;;;20.10;99.90;;;;;;5093589;28;20032;-74
2022/05/19 05:32:10;;;;;;;10.82;6.78;;;20.00;99.90;;;;;;5093736;28;20040;-74
2022/05/19 05:34:36;;;;;;;11.98;7.10;;;20.10;99.90;;;;;;5092655;28;20089;-75
2022/05/19 05:37:04;;;;;;;12.40;6.70;;;20.10;99.90;;;;;;5092504;28;20036;-75
2022/05/19 05:39:30;;;;;;;7.60;5.82;;;20.20;99.90;;;;;;5092370;28;20035;-75
2022/05/19 05:41:56;;;;;;;8.18;5.95;;;20.40;99.90;;;;;;5093758;28;20032;-75
2022/05/19 05:44:21;;;;;;;13.30;6.05;;;20.40;99.90;;;;;;5093400;28;20023;-75
2022/05/19 05:46:47;;;;;;;8.80;5.88;;;20.40;99.90;;;;;;5087994;28;20029;-75
2022/05/19 05:49:13;;;;;;;9.63;6.20;;;20.50;99.90;;;;;;5072737;28;20114;-74
2022/05/19 05:51:39;;;;;;;13.18;6.65;;;20.80;99.90;;;;;;5073196;28;20091;-76
2022/05/19 05:54:05;;;;;;;14.93;6.68;;;20.70;99.90;;;;;;5072013;28;20040;-75
2022/05/19 05:56:31;;;;;;;19.90;6.97;;;20.70;99.90;;;;;;5072688;28;20037;-76
2022/05/19 05:58:57;;;;;;;11.90;6.00;;;20.70;99.90;;;;;;5076853;28;20039;-73
2022/05/19 06:01:23;;;;;;;9.27;6.00;;;20.30;99.90;;;;;;5092906;28;20396;-74
2022/05/19 06:03:50;;;;;;;13.98;6.72;;;20.40;99.90;;;;;;5093243;28;20020;-74
2022/05/19 06:06:16;;;;;;;9.35;6.68;;;20.50;99.90;;;;;;5106624;28;20013;-73
2022/05/19 06:08:42;;;;;;;10.80;6.70;;;20.70;99.90;;;;;;5101001;28;20024;-74
2022/05/19 06:11:08;;;;;;;19.55;6.63;;;20.70;99.90;;;;;;5100165;28;20032;-73
2022/05/19 06:13:34;;;;;;;16.67;6.97;;;20.60;99.90;;;;;;5108344;28;20031;-73
2022/05/19 06:16:00;;;;;;;14.27;7.22;;;20.70;99.90;;;;;;5095369;28;20120;-73
2022/05/19 06:18:26;;;;;;;12.77;7.25;;;20.90;99.90;;;;;;5106305;28;20040;-74
2022/05/19 06:20:53;;;;;;;14.35;8.23;;;21.20;99.90;;;;;;5101963;28;20028;-73
2022/05/19 06:23:20;;;;;;;13.02;6.97;;;21.40;99.90;;;;;;5098824;28;20054;-74
2022/05/19 06:25:46;;;;;;;16.33;6.47;;;21.40;99.90;;;;;;5107654;28;20027;-73
2022/05/19 06:28:13;;;;;;;15.35;6.47;;;21.30;99.90;;;;;;5096768;28;20114;-73
2022/05/19 06:30:40;;;;;;;19.70;7.28;;;21.30;99.90;;;;;;5100348;28;20110;-73
2022/05/19 06:33:06;;;;;;;10.68;6.03;;;21.50;99.90;;;;;;5100646;28;20055;-73
2022/05/19 06:35:34;;;;;;;13.48;6.20;;;21.50;99.90;;;;;;5104040;28;20035;-73
2022/05/19 06:38:00;;;;;;;12.73;5.72;;;21.70;99.90;;;;;;5095550;28;20051;-73
2022/05/19 06:40:28;;;;;;;14.25;6.03;;;21.70;99.90;;;;;;5090188;28;20033;-74
2022/05/19 06:42:55;;;;;;;15.63;7.18;;;21.80;99.90;;;;;;5101986;28;20075;-73
2022/05/19 06:45:24;;;;;;;8.13;5.05;;;21.70;99.90;;;;;;5105703;28;20036;-73
2022/05/19 06:47:51;;;;;;;11.98;6.00;;;21.80;99.90;;;;;;5094881;28;20203;-72
2022/05/19 06:50:17;;;;;;;8.95;5.10;;;21.80;99.90;;;;;;5107579;28;20077;-74
2022/05/19 06:52:53;;;;;;;18.65;4.43;;;21.60;99.90;;;;;;5100487;28;20027;-74
2022/05/19 06:55:21;;;;;;;10.73;4.70;;;21.60;99.90;;;;;;5098670;28;20066;-74
2022/05/19 06:57:47;;;;;;;5.22;4.05;;;21.70;99.90;;;;;;5084627;28;20029;-73
2022/05/19 07:00:20;;;;;;;9.57;4.30;;;21.80;99.90;;;;;;5075014;28;20036;-74
2022/05/19 07:02:49;;;;;;;10.73;4.05;;;21.80;99.90;;;;;;5073541;28;20032;-75
2022/05/19 07:05:16;;;;;;;8.63;3.95;;;22.00;99.90;;;;;;5090981;28;20039;-75
2022/05/19 07:07:43;;;;;;;9.63;3.83;;;22.20;99.90;;;;;;5092425;28;20081;-75
2022/05/19 07:10:12;;;;;;;10.00;3.95;;;22.40;99.90;;;;;;5092416;28;20099;-75
2022/05/19 07:12:38;;;;;;;9.00;3.92;;;22.50;99.90;;;;;;5093761;28;20024;-74
2022/05/19 07:15:04;;;;;;;8.70;4.45;;;22.60;99.90;;;;;;5096097;28;20116;-75
2022/05/19 07:17:30;;;;;;;9.57;3.90;;;22.60;99.90;;;;;;5096218;28;20122;-75
2022/05/19 07:22:40;;;;;;;6.18;3.63;;;22.70;99.90;;;;;;5096001;28;20040;-75
2022/05/19 07:25:08;;;;;;;12.15;4.22;;;22.60;99.90;;;;;;5096227;28;20100;-75
2022/05/19 07:27:35;;;;;;;5.95;3.63;;;22.70;99.90;;;;;;5096040;28;20020;-76
2022/05/19 07:30:03;;;;;;;9.98;4.40;;;22.80;99.90;;;;;;5095913;28;20028;-76
2022/05/19 07:32:29;;;;;;;12.65;4.60;;;22.90;99.90;;;;;;5095755;28;20082;-75
2022/05/19 07:34:57;;;;;;;9.18;4.50;;;22.80;99.90;;;;;;5094655;28;20415;-75
2022/05/19 07:37:24;;;;;;;8.05;3.97;;;22.80;99.90;;;;;;5095773;28;20040;-76
2022/05/19 07:39:51;;;;;;;9.43;5.20;;;22.80;99.90;;;;;;5095776;28;20111;-76
2022/05/19 07:42:18;;;;;;;10.95;4.43;;;22.80;99.90;;;;;;5095936;28;20024;-76
2022/05/19 07:44:44;;;;;;;8.07;4.65;;;22.50;99.90;;;;;;5095554;28;20043;-76
2022/05/19 07:47:09;;;;;;;10.40;5.00;;;22.50;99.90;;;;;;5088195;28;20039;-76
2022/05/19 07:49:36;;;;;;;9.35;5.60;;;22.70;99.90;;;;;;5075490;28;20028;-76
2022/05/19 07:52:03;;;;;;;10.45;5.78;;;22.70;99.90;;;;;;5075554;28;20024;-76
2022/05/19 07:54:30;;;;;;;9.55;5.43;;;22.80;99.90;;;;;;5075842;28;20036;-76
2022/05/19 07:56:56;;;;;;;8.35;5.95;;;22.80;99.90;;;;;;5075432;28;20051;-75
2022/05/19 07:59:23;;;;;;;14.15;6.47;;;22.80;99.90;;;;;;5073564;28;20476;-76
2022/05/19 08:01:49;;;;;;;12.35;6.90;;;22.80;99.90;;;;;;5075190;28;20493;-76
2022/05/19 08:04:15;;;;;;;13.95;7.13;;;22.70;99.90;;;;;;5089439;28;20036;-76
2022/05/19 08:06:41;;;;;;;10.13;6.80;;;22.60;99.90;;;;;;5093907;28;20073;-76
2022/05/19 08:11:53;;;;;;;19.45;8.10;;;22.80;99.90;;;;;;5095132;28;20044;-76
2022/05/19 08:17:17;;;;;;;11.95;8.13;;;22.80;99.90;;;;;;5082886;28;20090;-76
2022/05/19 08:19:45;;;;;;;15.93;8.05;;;22.70;99.90;;;;;;5093700;28;20106;-76
2022/05/19 08:22:12;;;;;;;12.25;8.10;;;22.60;99.90;;;;;;5095103;28;20024;-76
2022/05/19 08:24:38;;;;;;;15.90;9.30;;;22.50;99.90;;;;;;5094180;28;20035;-76
2022/05/19 08:27:05;;;;;;;19.92;9.68;;;22.30;99.90;;;;;;5093684;28;20126;-76
2022/05/19 08:29:32;;;;;;;14.95;9.68;;;22.40;99.90;;;;;;5094857;28;20028;-76
2022/05/19 08:31:58;;;;;;;15.02;9.88;;;22.40;99.90;;;;;;5095031;28;20434;-76
2022/05/19 08:34:23;;;;;;;20.02;10.88;;;22.50;99.90;;;;;;5094759;28;20048;-76
2022/05/19 08:36:50;;;;;;;20.85;8.88;;;22.70;99.90;;;;;;5094904;28;20028;-76
2022/05/19 08:39:18;;;;;;;17.45;9.68;;;23.00;99.90;;;;;;5093352;28;20043;-76
2022/05/19 08:41:55;;;;;;;12.90;9.07;;;23.20;99.90;;;;;;5094545;28;20484;-76
2022/05/19 08:44:32;;;;;;;15.27;9.70;;;23.20;99.90;;;;;;5094537;28;20121;-76
2022/05/19 08:47:02;;;;;;;20.70;10.32;;;23.40;99.90;;;;;;5088730;28;20024;-76
2022/05/19 08:49:44;;;;;;;17.45;10.15;;;23.40;99.90;;;;;;5074220;28;20021;-76
2022/05/19 08:52:14;;;;;;;19.42;10.23;;;23.50;99.90;;;;;;5074286;28;20032;-75
2022/05/19 08:54:44;;;;;;;14.80;9.77;;;23.70;99.90;;;;;;5074008;28;20040;-76
2022/05/19 08:57:28;;;;;;;15.52;10.45;;;23.80;99.90;;;;;;5073968;28;20245;-76
2022/05/19 09:00:09;;;;;;;19.25;10.77;;;23.90;99.90;;;;;;5072603;28;20037;-76
2022/05/19 09:03:11;;;;;;;17.08;9.88;;;24.40;99.90;;;;;;5073367;28;20488;-76
2022/05/19 09:05:55;;;;;;;21.85;10.57;;;24.40;99.90;;;;;;5070635;28;20134;-75
2022/05/19 09:08:45;;;;;;;17.27;9.50;;;24.90;99.90;;;;;;5094341;28;20119;-75
2022/05/19 09:11:24;;;;;;;13.93;9.48;;;24.80;99.90;;;;;;5093816;28;20460;-75
2022/05/19 09:14:20;;;;;;;16.92;8.65;;;24.80;99.90;;;;;;5094060;28;20107;-75
2022/05/19 09:16:47;;;;;;;12.02;8.25;;;24.60;99.90;;;;;;5073880;28;20066;-75
2022/05/19 09:19:22;;;;;;;12.35;8.18;;;24.90;99.90;;;;;;5072405;28;20051;-74
2022/05/19 09:21:56;;;;;;;13.52;8.50;;;25.50;99.90;;;;;;5073774;28;20029;-76
2022/05/19 09:24:22;;;;;;;16.15;9.60;;;25.90;99.90;;;;;;5073516;28;20039;-75
2022/05/19 09:26:56;;;;;;;11.98;8.43;;;25.70;99.90;;;;;;5073355;28;20044;-74
2022/05/19 09:29:32;;;;;;;13.40;8.13;;;25.30;99.90;;;;;;5073662;28;20036;-75
2022/05/19 09:32:12;;;;;;;18.63;8.25;;;25.30;99.90;;;;;;5072304;28;20058;-75
2022/05/19 09:34:48;;;;;;;19.60;8.60;;;25.40;99.90;;;;;;5073272;28;20036;-74
2022/05/19 09:37:16;;;;;;;15.55;9.77;;;25.10;99.90;;;;;;5072540;28;20115;-75
2022/05/19 09:39:48;;;;;;;12.50;9.25;;;25.60;99.90;;;;;;5071909;28;20064;-75
2022/05/19 09:42:22;;;;;;;13.88;9.45;;;25.50;99.90;;;;;;5072050;28;20028;-75
2022/05/19 09:44:53;;;;;;;15.57;10.40;;;25.80;99.90;;;;;;5073250;28;20040;-75
2022/05/19 09:47:35;;;;;;;17.67;9.10;;;26.00;99.90;;;;;;5076812;28;20036;-75
2022/05/19 09:50:29;;;;;;;11.88;8.40;;;26.30;99.90;;;;;;5073085;28;20045;-75
2022/05/19 09:53:05;;;;;;;17.17;8.43;;;26.60;99.90;;;;;;5073246;28;20037;-75
2022/05/19 09:55:37;;;;;;;16.58;8.32;;;26.30;99.90;;;;;;5072836;28;20052;-75
2022/05/19 09:58:06;;;;;;;17.98;9.32;;;26.50;99.90;;;;;;5073055;28;20046;-75
2022/05/19 10:00:35;;;;;;;16.42;9.43;;;26.50;99.90;;;;;;5072974;28;20029;-75
2022/05/19 10:03:03;;;;;;;15.45;7.55;;;26.30;99.90;;;;;;5077097;28;20040;-74
2022/05/19 10:05:46;;;;;;;15.45;9.45;;;26.50;99.90;;;;;;5093060;28;20034;-75
2022/05/19 10:08:25;;;;;;;15.82;8.10;;;25.90;99.90;;;;;;5081481;28;20048;-75
2022/05/19 10:11:12;;;;;;;21.73;8.38;;;25.80;99.90;;;;;;5072787;28;20028;-75
2022/05/19 10:13:43;;;;;;;13.80;8.90;;;25.30;99.90;;;;;;5073097;28;20123;-75
2022/05/19 10:16:17;;;;;;;15.38;10.02;;;24.80;99.90;;;;;;5072795;28;20492;-75
2022/05/19 10:19:04;;;;;;;13.88;9.95;;;24.50;99.90;;;;;;5073080;28;20052;-75
2022/05/19 10:21:37;;;;;;;15.25;10.27;;;24.30;99.90;;;;;;5072625;28;20028;-75
2022/05/19 10:24:54;;;;;;;15.70;11.07;;;24.00;99.90;;;;;;5072349;28;20400;-75
2022/05/19 10:31:04;;;;;;;17.23;9.98;;;23.40;99.90;;;;;;5072663;28;20028;-75
2022/05/19 10:33:51;;;;;;;17.33;8.13;;;23.10;99.90;;;;;;5072493;28;20055;-75
2022/05/19 10:36:39;;;;;;;12.55;7.20;;;22.60;99.90;;;;;;5072697;28;20029;-74
2022/05/19 10:39:18;;;;;;;21.38;7.20;;;22.00;99.90;;;;;;5071097;28;20119;-80
2022/05/19 10:42:27;;;;;;;17.52;6.90;;;20.30;99.90;;;;;;5071305;28;20040;-81
2022/05/19 10:45:17;;;;;;;21.88;9.23;;;19.10;99.90;;;;;;5030181;28;20106;-83
2022/05/19 10:47:47;;;;;;;25.92;10.15;;;18.70;99.90;;;;;;5034977;28;20057;-81
2022/05/19 10:50:29;;;;;;;20.83;10.98;;;18.60;99.90;;;;;;5068925;28;20044;-80
2022/05/19 10:53:00;;;;;;;22.70;11.82;;;18.60;99.90;;;;;;5076069;28;20433;-79
2022/05/19 10:55:53;;;;;;;24.73;14.55;;;18.70;99.90;;;;;;5076588;28;20036;-80
2022/05/19 10:58:49;;;;;;;29.25;15.27;;;18.70;99.90;;;;;;5080843;28;20085;-79
2022/05/19 11:01:22;;;;;;;27.98;18.70;;;18.80;99.90;;;;;;5076573;28;20473;-79
2022/05/19 11:04:00;;;;;;;30.88;19.67;;;18.90;99.90;;;;;;5076318;28;20563;-79
2022/05/19 11:06:45;;;;;;;28.25;18.70;;;18.90;99.90;;;;;;5075932;28;20029;-80
2022/05/19 11:09:28;;;;;;;23.10;16.02;;;18.90;99.90;;;;;;5076100;28;20369;-79
2022/05/19 11:11:54;;;;;;;24.75;16.88;;;18.80;99.90;;;;;;5076138;28;20032;-79
2022/05/19 11:14:40;;;;;;;22.67;16.25;;;18.60;99.90;;;;;;5077241;28;20052;-79
2022/05/19 11:17:15;;;;;;;27.92;19.77;;;18.40;99.90;;;;;;5071820;28;20139;-79
2022/05/19 11:19:54;;;;;;;25.38;19.15;;;18.50;99.90;;;;;;5076010;28;20118;-78
2022/05/19 11:22:28;;;;;;;22.60;18.98;;;18.40;99.90;;;;;;5075498;28;20492;-79
2022/05/19 11:27:56;;;;;;;24.50;18.55;;;18.50;99.90;;;;;;5094273;28;20434;-79
2022/05/19 11:30:30;;;;;;;27.67;21.25;;;18.40;99.90;;;;;;5096107;28;20055;-78
2022/05/19 11:33:00;;;;;;;27.20;21.00;;;18.50;99.90;;;;;;5095220;28;20040;-77
2022/05/19 11:35:46;;;;;;;25.83;21.77;;;18.50;99.90;;;;;;5095683;28;20020;-77
2022/05/19 11:38:28;;;;;;;26.77;21.48;;;18.50;99.90;;;;;;5095822;28;20500;-78
2022/05/19 11:41:14;;;;;;;27.95;21.15;;;18.70;99.90;;;;;;5095453;28;20032;-77
2022/05/19 11:44:19;;;;;;;21.45;18.98;;;18.90;99.90;;;;;;5095823;28;20070;-77
2022/05/19 11:47:13;;;;;;;25.90;19.13;;;18.90;99.90;;;;;;5091915;28;20035;-82
2022/05/19 11:55:47;;;;;;;21.65;19.23;;;19.30;99.90;;;;;;5073816;28;20036;-75
2022/05/19 11:58:28;;;;;;;21.48;16.92;;;19.70;99.90;;;;;;5084798;28;20032;-75
2022/05/19 12:01:00;;;;;;;21.98;15.55;;;19.80;99.90;;;;;;5094574;28;20465;-75
2022/05/19 12:03:36;;;;;;;15.85;12.90;;;20.30;99.90;;;;;;5073648;28;20039;-75
2022/05/19 12:06:29;;;;;;;17.58;12.10;;;20.20;99.90;;;;;;5074724;28;20071;-75
2022/05/19 12:09:19;;;;;;;18.73;11.73;;;20.50;99.90;;;;;;5074923;28;20425;-75
2022/05/19 12:11:45;;;;;;;16.10;11.57;;;20.90;99.90;;;;;;5073761;28;20040;-75
2022/05/19 12:14:11;;;;;;;18.92;11.40;;;20.90;99.90;;;;;;5073309;28;20070;-75
2022/05/19 12:16:47;;;;;;;17.83;11.57;;;21.10;99.90;;;;;;5075077;28;20029;-75
2022/05/19 12:19:43;;;;;;;16.65;8.85;;;21.90;99.90;;;;;;5073409;28;20526;-74
2022/05/19 12:22:36;;;;;;;12.20;7.85;;;22.10;99.90;;;;;;5074627;28;20128;-75
2022/05/19 12:25:08;;;;;;;11.50;6.03;;;22.50;99.90;;;;;;5074519;28;20041;-75
2022/05/19 12:27:36;;;;;;;11.90;5.50;;;22.90;99.90;;;;;;5074940;28;20029;-75
2022/05/19 12:33:12;;;;;;;8.45;5.38;;;22.50;99.90;;;;;;5089560;28;20123;-74
2022/05/19 12:35:40;;;;;;;10.63;5.05;;;22.00;99.90;;;;;;5094388;28;20529;-74
2022/05/19 12:38:27;;;;;;;11.48;5.68;;;21.90;99.90;;;;;;5093351;28;20585;-74
2022/05/19 12:40:58;;;;;;;9.55;5.40;;;22.50;99.90;;;;;;5094678;28;20491;-74
2022/05/19 12:43:38;;;;;;;8.00;4.47;;;22.60;99.90;;;;;;5076736;28;20024;-74
2022/05/19 12:46:13;;;;;;;7.95;4.55;;;21.90;99.90;;;;;;5093208;28;20097;-74
2022/05/19 12:48:48;;;;;;;11.05;4.45;;;21.50;99.90;;;;;;5074210;28;20135;-74
2022/05/19 12:51:24;;;;;;;8.27;5.18;;;21.30;99.90;;;;;;5072938;28;20033;-74
2022/05/19 12:53:50;;;;;;;9.32;4.45;;;21.20;99.90;;;;;;5074196;28;20055;-74
2022/05/19 12:56:55;;;;;;;7.65;4.70;;;21.30;99.90;;;;;;5072710;28;20032;-74
2022/05/19 12:59:44;;;;;;;9.73;4.15;;;21.90;99.90;;;;;;5073632;28;20040;-74
2022/05/19 13:02:25;;;;;;;8.20;4.53;;;22.00;99.90;;;;;;5072345;28;20401;-74
2022/05/19 13:05:00;;;;;;;9.50;5.05;;;22.30;99.90;;;;;;5090811;28;20113;-74
2022/05/19 13:07:42;;;;;;;13.82;6.25;;;23.20;99.90;;;;;;5107719;28;20383;-74
2022/05/19 13:10:21;;;;;;;9.57;6.30;;;22.90;99.90;;;;;;5094632;28;20073;-75
2022/05/19 13:12:59;;;;;;;14.48;5.82;;;22.70;99.90;;;;;;5105206;28;20028;-74
2022/05/19 13:15:44;;;;;;;14.45;6.45;;;23.70;99.90;;;;;;5107134;28;20178;-74
2022/05/19 13:18:11;;;;;;;11.38;7.07;;;24.40;99.90;;;;;;5096638;28;20036;-74
2022/05/19 13:20:40;;;;;;;7.75;5.65;;;24.00;99.90;;;;;;5106317;28;20091;-74
2022/05/19 13:23:30;;;;;;;7.53;5.47;;;24.60;99.90;;;;;;5087669;28;20382;-74